This is the latest recevied weather packets stored in our database for station/object KD2FGL-13. If no packets are shown the sender has not sent any weather packets the latest 10 day(s).
| Time | Temp. | Humidity | Pressure | Rain* | Wind** | Luminosity | Snow |
|---|---|---|---|---|---|---|---|
| 1787594206 | 27.22° C | 39% | 1015.1 hPa | 0 mm | - | - | - |
| 1787593905 | 26.67° C | 39% | 1015.1 hPa | 0 mm | - | - | - |
| 1787592687 | 26.67° C | 40% | 1015.4 hPa | 0 mm | - | - | - |
| 1787592079 | 26.67° C | 40% | 1015.5 hPa | 0 mm | - | - | - |
| 1787591473 | 26.67° C | 40% | 1015.6 hPa | 0 mm | - | - | - |
| 1787591167 | 26.67° C | 40% | 1015.6 hPa | 0 mm | - | - | - |
| 1787589649 | 26.11° C | 41% | 1015.8 hPa | 0 mm | - | - | - |
| 1787589343 | 26.11° C | 41% | 1015.8 hPa | 0 mm | - | - | - |
| 1787589039 | 26.11° C | 41% | 1015.8 hPa | 0 mm | - | - | - |
| 1787588736 | 26.11° C | 41% | 1015.9 hPa | 0 mm | - | - | - |
| 1787588432 | 26.11° C | 41% | 1015.9 hPa | 0 mm | - | - | - |
| 1787588127 | 26.11° C | 41% | 1016 hPa | 0 mm | - | - | - |
| 1787587218 | 26.11° C | 42% | 1016 hPa | 0 mm | - | - | - |
| 1787586912 | 26.11° C | 42% | 1016.1 hPa | 0 mm | - | - | - |
| 1787586608 | 26.11° C | 41% | 1016.1 hPa | 0 mm | - | - | - |
| 1787586000 | 26.11° C | 41% | 1016.2 hPa | 0 mm | - | - | - |
| 1787584481 | 26.67° C | 40% | 1016.2 hPa | 0 mm | - | - | - |
| 1787582353 | 26.11° C | 44% | 1016.2 hPa | 0 mm | - | - | - |
| 1787580834 | 25° C | 48% | 1015.9 hPa | 0 mm | - | - | - |
| 1787577490 | 20.56° C | 60% | 1016 hPa | 0 mm | - | - | - |
| 1787577186 | 20.56° C | 62% | 1016.1 hPa | 0 mm | - | - | - |
| 1787576578 | 18.89° C | 65% | 1016.2 hPa | 0 mm | - | - | - |
| 1787575970 | 17.22° C | 65% | 1016.2 hPa | 0 mm | - | - | - |
| 1787572932 | 16.11° C | 64% | 1016 hPa | 0 mm | - | - | - |
| 1787571716 | 15.56° C | 64% | 1016.1 hPa | 0 mm | - | - | - |
* Rain since midnight (hover to see other rain measurements)
** Current wind speed in m/s (hover to see current wind gust speed)